sensor_id;sensor_type;location;lat;lon;timestamp;temperature;humidity
2935;DHT22;2462;51.456;7.248;2023-04-25T00:01:11;15.10;98.60
2935;DHT22;2462;51.456;7.248;2023-04-25T00:03:38;15.20;98.70
2935;DHT22;2462;51.456;7.248;2023-04-25T00:06:04;15.10;98.60
2935;DHT22;2462;51.456;7.248;2023-04-25T00:08:30;15.20;98.70
2935;DHT22;2462;51.456;7.248;2023-04-25T00:10:56;15.10;98.70
2935;DHT22;2462;51.456;7.248;2023-04-25T00:13:22;15.10;98.70
2935;DHT22;2462;51.456;7.248;2023-04-25T00:15:48;15.10;98.70
2935;DHT22;2462;51.456;7.248;2023-04-25T00:18:14;15.10;98.70
2935;DHT22;2462;51.456;7.248;2023-04-25T00:20:40;15.10;98.80
2935;DHT22;2462;51.456;7.248;2023-04-25T00:23:06;15.10;98.80
2935;DHT22;2462;51.456;7.248;2023-04-25T00:25:31;15.10;98.80
2935;DHT22;2462;51.456;7.248;2023-04-25T00:27:57;15.10;98.80
2935;DHT22;2462;51.456;7.248;2023-04-25T00:30:22;15.00;98.80
2935;DHT22;2462;51.456;7.248;2023-04-25T00:32:48;15.10;98.90
2935;DHT22;2462;51.456;7.248;2023-04-25T00:35:14;15.10;98.90
2935;DHT22;2462;51.456;7.248;2023-04-25T00:37:39;15.10;98.80
2935;DHT22;2462;51.456;7.248;2023-04-25T00:40:06;15.10;98.90
2935;DHT22;2462;51.456;7.248;2023-04-25T00:42:32;15.00;98.90
2935;DHT22;2462;51.456;7.248;2023-04-25T00:44:59;15.10;98.90
2935;DHT22;2462;51.456;7.248;2023-04-25T00:47:25;15.10;98.90
2935;DHT22;2462;51.456;7.248;2023-04-25T00:49:50;15.10;99.00
2935;DHT22;2462;51.456;7.248;2023-04-25T00:52:16;15.10;98.90
2935;DHT22;2462;51.456;7.248;2023-04-25T00:54:42;15.10;99.00
2935;DHT22;2462;51.456;7.248;2023-04-25T00:57:08;15.00;99.00
2935;DHT22;2462;51.456;7.248;2023-04-25T00:59:33;15.10;99.00
2935;DHT22;2462;51.456;7.248;2023-04-25T01:01:59;15.10;99.00
2935;DHT22;2462;51.456;7.248;2023-04-25T01:04:27;15.00;99.10
2935;DHT22;2462;51.456;7.248;2023-04-25T01:06:52;15.10;99.10
2935;DHT22;2462;51.456;7.248;2023-04-25T01:09:19;15.00;99.10
2935;DHT22;2462;51.456;7.248;2023-04-25T01:11:45;15.10;99.10
2935;DHT22;2462;51.456;7.248;2023-04-25T01:14:11;15.00;99.10
2935;DHT22;2462;51.456;7.248;2023-04-25T01:16:36;15.00;99.10
2935;DHT22;2462;51.456;7.248;2023-04-25T01:19:09;15.00;99.10
2935;DHT22;2462;51.456;7.248;2023-04-25T01:21:36;15.00;99.10
2935;DHT22;2462;51.456;7.248;2023-04-25T01:24:02;15.10;99.20
2935;DHT22;2462;51.456;7.248;2023-04-25T01:26:28;15.10;99.20
2935;DHT22;2462;51.456;7.248;2023-04-25T01:31:24;15.00;99.10
2935;DHT22;2462;51.456;7.248;2023-04-25T01:33:50;15.00;99.20
2935;DHT22;2462;51.456;7.248;2023-04-25T01:36:15;15.10;99.30
2935;DHT22;2462;51.456;7.248;2023-04-25T01:38:41;15.00;99.30
2935;DHT22;2462;51.456;7.248;2023-04-25T01:41:07;15.00;99.30
2935;DHT22;2462;51.456;7.248;2023-04-25T01:43:33;15.00;99.30
2935;DHT22;2462;51.456;7.248;2023-04-25T01:45:59;15.00;99.30
2935;DHT22;2462;51.456;7.248;2023-04-25T01:48:24;15.00;99.30
2935;DHT22;2462;51.456;7.248;2023-04-25T01:50:50;15.00;99.70
2935;DHT22;2462;51.456;7.248;2023-04-25T01:53:15;15.10;99.30
2935;DHT22;2462;51.456;7.248;2023-04-25T01:55:41;15.00;99.30
2935;DHT22;2462;51.456;7.248;2023-04-25T01:58:07;15.00;99.30
2935;DHT22;2462;51.456;7.248;2023-04-25T02:00:35;15.00;99.40
2935;DHT22;2462;51.456;7.248;2023-04-25T02:03:03;15.00;99.40
2935;DHT22;2462;51.456;7.248;2023-04-25T02:05:28;15.00;99.40
2935;DHT22;2462;51.456;7.248;2023-04-25T02:07:58;15.00;99.40
2935;DHT22;2462;51.456;7.248;2023-04-25T02:10:24;15.00;99.40
2935;DHT22;2462;51.456;7.248;2023-04-25T02:12:50;15.00;99.50
2935;DHT22;2462;51.456;7.248;2023-04-25T02:15:15;14.90;99.50
2935;DHT22;2462;51.456;7.248;2023-04-25T02:17:41;14.90;99.50
2935;DHT22;2462;51.456;7.248;2023-04-25T02:20:06;14.90;99.50
2935;DHT22;2462;51.456;7.248;2023-04-25T02:22:32;14.90;99.50
2935;DHT22;2462;51.456;7.248;2023-04-25T02:24:59;15.00;99.50
2935;DHT22;2462;51.456;7.248;2023-04-25T02:27:24;14.90;99.50
2935;DHT22;2462;51.456;7.248;2023-04-25T02:29:50;14.90;99.50
2935;DHT22;2462;51.456;7.248;2023-04-25T02:32:15;14.90;99.60
2935;DHT22;2462;51.456;7.248;2023-04-25T02:34:41;14.90;99.60
2935;DHT22;2462;51.456;7.248;2023-04-25T02:37:06;14.90;99.60
2935;DHT22;2462;51.456;7.248;2023-04-25T02:39:32;14.90;99.60
2935;DHT22;2462;51.456;7.248;2023-04-25T02:41:57;14.90;99.60
2935;DHT22;2462;51.456;7.248;2023-04-25T02:44:23;14.90;99.60
2935;DHT22;2462;51.456;7.248;2023-04-25T02:46:48;14.90;99.60
2935;DHT22;2462;51.456;7.248;2023-04-25T02:49:14;14.90;99.60
2935;DHT22;2462;51.456;7.248;2023-04-25T02:51:40;14.90;99.70
2935;DHT22;2462;51.456;7.248;2023-04-25T02:54:05;14.90;99.60
2935;DHT22;2462;51.456;7.248;2023-04-25T02:56:31;14.90;99.60
2935;DHT22;2462;51.456;7.248;2023-04-25T02:58:57;14.90;99.70
2935;DHT22;2462;51.456;7.248;2023-04-25T03:01:23;14.90;99.70
2935;DHT22;2462;51.456;7.248;2023-04-25T03:03:48;14.80;99.60
2935;DHT22;2462;51.456;7.248;2023-04-25T03:06:14;14.80;99.70
2935;DHT22;2462;51.456;7.248;2023-04-25T03:08:41;14.80;99.70
2935;DHT22;2462;51.456;7.248;2023-04-25T03:11:06;14.80;99.70
2935;DHT22;2462;51.456;7.248;2023-04-25T03:13:32;14.80;99.60
2935;DHT22;2462;51.456;7.248;2023-04-25T03:15:57;14.80;99.70
2935;DHT22;2462;51.456;7.248;2023-04-25T03:18:23;14.80;99.70
2935;DHT22;2462;51.456;7.248;2023-04-25T03:20:48;14.80;99.70
2935;DHT22;2462;51.456;7.248;2023-04-25T03:23:14;14.80;99.70
2935;DHT22;2462;51.456;7.248;2023-04-25T03:25:39;14.80;99.80
2935;DHT22;2462;51.456;7.248;2023-04-25T03:28:05;14.80;99.80
2935;DHT22;2462;51.456;7.248;2023-04-25T03:30:31;14.80;99.80
2935;DHT22;2462;51.456;7.248;2023-04-25T03:32:57;14.80;99.80
2935;DHT22;2462;51.456;7.248;2023-04-25T03:35:22;14.80;99.80
2935;DHT22;2462;51.456;7.248;2023-04-25T03:37:49;14.80;99.80
2935;DHT22;2462;51.456;7.248;2023-04-25T03:40:14;14.70;99.80
2935;DHT22;2462;51.456;7.248;2023-04-25T03:42:40;14.80;99.80
2935;DHT22;2462;51.456;7.248;2023-04-25T03:45:06;14.70;99.80
2935;DHT22;2462;51.456;7.248;2023-04-25T03:47:32;14.70;99.70
2935;DHT22;2462;51.456;7.248;2023-04-25T03:49:57;14.70;99.80
2935;DHT22;2462;51.456;7.248;2023-04-25T03:52:23;14.70;99.80
2935;DHT22;2462;51.456;7.248;2023-04-25T03:54:48;14.70;99.80
2935;DHT22;2462;51.456;7.248;2023-04-25T03:57:14;14.70;99.80
2935;DHT22;2462;51.456;7.248;2023-04-25T03:59:39;14.70;99.80
2935;DHT22;2462;51.456;7.248;2023-04-25T04:02:05;14.70;99.80
2935;DHT22;2462;51.456;7.248;2023-04-25T04:04:30;14.70;99.90
2935;DHT22;2462;51.456;7.248;2023-04-25T04:06:56;14.70;99.80
2935;DHT22;2462;51.456;7.248;2023-04-25T04:09:21;14.70;99.90
2935;DHT22;2462;51.456;7.248;2023-04-25T04:11:47;14.70;99.90
2935;DHT22;2462;51.456;7.248;2023-04-25T04:14:13;14.70;99.90
2935;DHT22;2462;51.456;7.248;2023-04-25T04:16:38;14.70;99.90
2935;DHT22;2462;51.456;7.248;2023-04-25T04:19:04;14.70;99.90
2935;DHT22;2462;51.456;7.248;2023-04-25T04:21:29;14.70;99.90
2935;DHT22;2462;51.456;7.248;2023-04-25T04:23:55;14.70;99.90
2935;DHT22;2462;51.456;7.248;2023-04-25T04:26:23;14.70;99.80
2935;DHT22;2462;51.456;7.248;2023-04-25T04:28:50;14.70;99.80
2935;DHT22;2462;51.456;7.248;2023-04-25T04:31:20;14.70;99.80
2935;DHT22;2462;51.456;7.248;2023-04-25T04:33:46;14.70;99.90
2935;DHT22;2462;51.456;7.248;2023-04-25T04:36:12;14.60;99.80
2935;DHT22;2462;51.456;7.248;2023-04-25T04:38:38;14.60;99.90
2935;DHT22;2462;51.456;7.248;2023-04-25T04:41:04;14.60;99.80
2935;DHT22;2462;51.456;7.248;2023-04-25T04:43:29;14.60;99.80
2935;DHT22;2462;51.456;7.248;2023-04-25T04:45:55;14.60;99.80
2935;DHT22;2462;51.456;7.248;2023-04-25T04:48:24;14.60;99.80
2935;DHT22;2462;51.456;7.248;2023-04-25T04:50:49;14.60;99.80
2935;DHT22;2462;51.456;7.248;2023-04-25T04:53:15;14.60;99.90
2935;DHT22;2462;51.456;7.248;2023-04-25T04:55:41;14.60;99.80
2935;DHT22;2462;51.456;7.248;2023-04-25T04:58:07;14.60;99.80
2935;DHT22;2462;51.456;7.248;2023-04-25T05:00:33;14.60;99.90
2935;DHT22;2462;51.456;7.248;2023-04-25T05:02:58;14.60;99.90
2935;DHT22;2462;51.456;7.248;2023-04-25T05:05:24;14.50;99.80
2935;DHT22;2462;51.456;7.248;2023-04-25T05:07:50;14.60;99.90
2935;DHT22;2462;51.456;7.248;2023-04-25T05:10:16;14.50;99.80
2935;DHT22;2462;51.456;7.248;2023-04-25T05:12:42;14.50;99.80
2935;DHT22;2462;51.456;7.248;2023-04-25T05:15:08;14.60;99.90
2935;DHT22;2462;51.456;7.248;2023-04-25T05:17:34;14.60;99.90
2935;DHT22;2462;51.456;7.248;2023-04-25T05:19:59;14.60;99.90
2935;DHT22;2462;51.456;7.248;2023-04-25T05:22:25;14.60;99.90
2935;DHT22;2462;51.456;7.248;2023-04-25T05:24:50;14.60;99.80
2935;DHT22;2462;51.456;7.248;2023-04-25T05:27:17;14.60;99.80
2935;DHT22;2462;51.456;7.248;2023-04-25T05:29:43;14.70;99.80
2935;DHT22;2462;51.456;7.248;2023-04-25T05:32:09;14.70;99.90
2935;DHT22;2462;51.456;7.248;2023-04-25T05:34:34;14.70;99.90
2935;DHT22;2462;51.456;7.248;2023-04-25T05:37:00;14.80;99.80
2935;DHT22;2462;51.456;7.248;2023-04-25T05:39:26;14.80;99.70
2935;DHT22;2462;51.456;7.248;2023-04-25T05:41:52;14.90;99.70
2935;DHT22;2462;51.456;7.248;2023-04-25T05:44:17;15.00;99.60
2935;DHT22;2462;51.456;7.248;2023-04-25T05:46:43;15.00;99.50
2935;DHT22;2462;51.456;7.248;2023-04-25T05:49:09;15.10;99.60
2935;DHT22;2462;51.456;7.248;2023-04-25T05:51:34;15.10;99.50
2935;DHT22;2462;51.456;7.248;2023-04-25T05:54:00;15.20;99.90
2935;DHT22;2462;51.456;7.248;2023-04-25T05:56:25;15.20;99.50
2935;DHT22;2462;51.456;7.248;2023-04-25T05:58:51;15.30;99.60
2935;DHT22;2462;51.456;7.248;2023-04-25T06:01:16;15.30;99.60
2935;DHT22;2462;51.456;7.248;2023-04-25T06:03:42;15.40;99.60
2935;DHT22;2462;51.456;7.248;2023-04-25T06:06:08;15.40;99.60
2935;DHT22;2462;51.456;7.248;2023-04-25T06:08:34;15.50;99.60
2935;DHT22;2462;51.456;7.248;2023-04-25T06:11:00;15.60;99.70
2935;DHT22;2462;51.456;7.248;2023-04-25T06:13:26;15.60;99.70
2935;DHT22;2462;51.456;7.248;2023-04-25T06:15:52;15.60;99.70
2935;DHT22;2462;51.456;7.248;2023-04-25T06:18:18;15.70;99.70
2935;DHT22;2462;51.456;7.248;2023-04-25T06:20:43;15.70;99.70
2935;DHT22;2462;51.456;7.248;2023-04-25T06:23:09;15.80;99.80
2935;DHT22;2462;51.456;7.248;2023-04-25T06:25:34;15.80;99.80
2935;DHT22;2462;51.456;7.248;2023-04-25T06:28:00;15.90;99.80
2935;DHT22;2462;51.456;7.248;2023-04-25T06:30:25;15.90;99.80
2935;DHT22;2462;51.456;7.248;2023-04-25T06:32:54;16.00;99.90
2935;DHT22;2462;51.456;7.248;2023-04-25T06:35:20;16.00;99.90
2935;DHT22;2462;51.456;7.248;2023-04-25T06:37:45;16.00;99.90
2935;DHT22;2462;51.456;7.248;2023-04-25T06:40:11;16.00;99.90
2935;DHT22;2462;51.456;7.248;2023-04-25T06:42:36;16.10;99.90
2935;DHT22;2462;51.456;7.248;2023-04-25T06:45:02;16.20;99.90
2935;DHT22;2462;51.456;7.248;2023-04-25T06:47:28;16.20;99.90
2935;DHT22;2462;51.456;7.248;2023-04-25T06:49:55;16.30;99.90
2935;DHT22;2462;51.456;7.248;2023-04-25T06:52:21;16.30;99.90
2935;DHT22;2462;51.456;7.248;2023-04-25T06:54:46;16.40;99.90
2935;DHT22;2462;51.456;7.248;2023-04-25T06:57:12;16.40;99.90
2935;DHT22;2462;51.456;7.248;2023-04-25T06:59:38;16.50;99.90
2935;DHT22;2462;51.456;7.248;2023-04-25T07:02:03;16.60;99.90
2935;DHT22;2462;51.456;7.248;2023-04-25T07:04:29;16.70;99.90
2935;DHT22;2462;51.456;7.248;2023-04-25T07:06:56;16.70;98.90
2935;DHT22;2462;51.456;7.248;2023-04-25T07:09:21;16.70;99.40
2935;DHT22;2462;51.456;7.248;2023-04-25T07:11:47;16.80;99.60
2935;DHT22;2462;51.456;7.248;2023-04-25T07:14:12;16.80;99.50
2935;DHT22;2462;51.456;7.248;2023-04-25T07:16:38;16.70;99.00
2935;DHT22;2462;51.456;7.248;2023-04-25T07:19:03;16.70;98.70
2935;DHT22;2462;51.456;7.248;2023-04-25T07:21:29;16.70;99.40
2935;DHT22;2462;51.456;7.248;2023-04-25T07:23:56;16.60;99.10
2935;DHT22;2462;51.456;7.248;2023-04-25T07:26:22;16.70;99.20
2935;DHT22;2462;51.456;7.248;2023-04-25T07:28:47;16.70;99.20
2935;DHT22;2462;51.456;7.248;2023-04-25T07:31:16;16.70;99.30
2935;DHT22;2462;51.456;7.248;2023-04-25T07:33:46;16.80;99.40
2935;DHT22;2462;51.456;7.248;2023-04-25T07:36:12;16.90;99.40
2935;DHT22;2462;51.456;7.248;2023-04-25T07:38:38;17.00;99.30
2935;DHT22;2462;51.456;7.248;2023-04-25T07:41:04;17.10;99.40
2935;DHT22;2462;51.456;7.248;2023-04-25T07:43:29;17.10;99.30
2935;DHT22;2462;51.456;7.248;2023-04-25T07:45:56;17.20;99.30
2935;DHT22;2462;51.456;7.248;2023-04-25T07:48:22;17.30;99.40
2935;DHT22;2462;51.456;7.248;2023-04-25T07:50:58;17.40;99.40
2935;DHT22;2462;51.456;7.248;2023-04-25T07:53:23;17.50;99.30
2935;DHT22;2462;51.456;7.248;2023-04-25T07:55:50;17.60;99.50
2935;DHT22;2462;51.456;7.248;2023-04-25T07:58:15;17.70;99.40
2935;DHT22;2462;51.456;7.248;2023-04-25T08:00:46;17.80;99.20
2935;DHT22;2462;51.456;7.248;2023-04-25T08:03:11;18.00;99.10
2935;DHT22;2462;51.456;7.248;2023-04-25T08:05:37;18.00;96.40
2935;DHT22;2462;51.456;7.248;2023-04-25T08:08:03;18.00;95.80
2935;DHT22;2462;51.456;7.248;2023-04-25T08:10:29;18.00;96.60
2935;DHT22;2462;51.456;7.248;2023-04-25T08:12:55;18.30;97.30
2935;DHT22;2462;51.456;7.248;2023-04-25T08:15:21;18.50;97.30
2935;DHT22;2462;51.456;7.248;2023-04-25T08:17:46;18.50;97.20
2935;DHT22;2462;51.456;7.248;2023-04-25T08:20:12;18.60;97.20
2935;DHT22;2462;51.456;7.248;2023-04-25T08:22:37;18.60;97.00
2935;DHT22;2462;51.456;7.248;2023-04-25T08:25:03;18.70;97.10
2935;DHT22;2462;51.456;7.248;2023-04-25T08:27:29;18.80;96.90
2935;DHT22;2462;51.456;7.248;2023-04-25T08:29:55;18.80;96.90
2935;DHT22;2462;51.456;7.248;2023-04-25T08:32:20;18.90;97.10
2935;DHT22;2462;51.456;7.248;2023-04-25T08:34:47;19.00;97.10
2935;DHT22;2462;51.456;7.248;2023-04-25T08:37:12;19.10;97.00
2935;DHT22;2462;51.456;7.248;2023-04-25T08:39:38;19.20;97.00
2935;DHT22;2462;51.456;7.248;2023-04-25T08:42:06;19.30;96.90
2935;DHT22;2462;51.456;7.248;2023-04-25T08:44:35;19.40;97.00
2935;DHT22;2462;51.456;7.248;2023-04-25T08:47:04;19.40;96.90
2935;DHT22;2462;51.456;7.248;2023-04-25T08:49:34;19.40;97.00
2935;DHT22;2462;51.456;7.248;2023-04-25T08:52:01;19.50;97.00
2935;DHT22;2462;51.456;7.248;2023-04-25T08:54:28;19.50;97.00
2935;DHT22;2462;51.456;7.248;2023-04-25T08:56:56;19.50;97.00
2935;DHT22;2462;51.456;7.248;2023-04-25T09:06:44;19.90;96.10
2935;DHT22;2462;51.456;7.248;2023-04-25T09:11:37;20.50;96.70
2935;DHT22;2462;51.456;7.248;2023-04-25T09:14:23;20.80;96.70
2935;DHT22;2462;51.456;7.248;2023-04-25T09:21:55;21.00;96.40
2935;DHT22;2462;51.456;7.248;2023-04-25T09:24:41;21.00;96.30
2935;DHT22;2462;51.456;7.248;2023-04-25T09:27:12;21.00;96.10
2935;DHT22;2462;51.456;7.248;2023-04-25T09:29:40;21.00;96.30
2935;DHT22;2462;51.456;7.248;2023-04-25T09:32:21;20.90;96.30
2935;DHT22;2462;51.456;7.248;2023-04-25T09:34:48;20.90;96.30
2935;DHT22;2462;51.456;7.248;2023-04-25T09:37:22;20.80;96.40
2935;DHT22;2462;51.456;7.248;2023-04-25T09:39:58;20.80;96.50
2935;DHT22;2462;51.456;7.248;2023-04-25T09:42:28;20.70;96.30
2935;DHT22;2462;51.456;7.248;2023-04-25T09:44:55;20.70;96.20
2935;DHT22;2462;51.456;7.248;2023-04-25T09:47:23;20.70;96.40
2935;DHT22;2462;51.456;7.248;2023-04-25T09:49:50;20.70;96.80
2935;DHT22;2462;51.456;7.248;2023-04-25T09:52:17;20.80;96.50
2935;DHT22;2462;51.456;7.248;2023-04-25T09:54:44;20.80;96.50
2935;DHT22;2462;51.456;7.248;2023-04-25T09:57:18;20.90;96.50
2935;DHT22;2462;51.456;7.248;2023-04-25T09:59:51;20.90;96.50
2935;DHT22;2462;51.456;7.248;2023-04-25T10:02:26;21.00;96.50
2935;DHT22;2462;51.456;7.248;2023-04-25T10:04:54;21.00;96.60
2935;DHT22;2462;51.456;7.248;2023-04-25T10:07:26;21.00;96.50
2935;DHT22;2462;51.456;7.248;2023-04-25T10:10:02;21.10;96.50
2935;DHT22;2462;51.456;7.248;2023-04-25T10:12:32;21.20;96.50
2935;DHT22;2462;51.456;7.248;2023-04-25T10:14:59;21.20;96.50
2935;DHT22;2462;51.456;7.248;2023-04-25T10:17:26;21.30;96.50
2935;DHT22;2462;51.456;7.248;2023-04-25T10:19:53;21.40;96.50
2935;DHT22;2462;51.456;7.248;2023-04-25T10:22:37;21.50;96.60
2935;DHT22;2462;51.456;7.248;2023-04-25T10:25:04;21.70;96.40
2935;DHT22;2462;51.456;7.248;2023-04-25T10:27:31;21.70;96.40
2935;DHT22;2462;51.456;7.248;2023-04-25T10:30:08;21.80;96.40
2935;DHT22;2462;51.456;7.248;2023-04-25T10:32:36;21.80;96.20
2935;DHT22;2462;51.456;7.248;2023-04-25T10:35:17;21.80;96.20
2935;DHT22;2462;51.456;7.248;2023-04-25T10:37:58;21.70;95.90
2935;DHT22;2462;51.456;7.248;2023-04-25T10:40:25;21.60;96.00
2935;DHT22;2462;51.456;7.248;2023-04-25T10:42:54;21.50;96.00
2935;DHT22;2462;51.456;7.248;2023-04-25T10:45:23;21.40;96.10
2935;DHT22;2462;51.456;7.248;2023-04-25T10:47:48;21.40;96.20
2935;DHT22;2462;51.456;7.248;2023-04-25T10:50:15;21.40;96.30
2935;DHT22;2462;51.456;7.248;2023-04-25T10:52:43;21.40;96.40
2935;DHT22;2462;51.456;7.248;2023-04-25T10:55:09;21.30;96.30
2935;DHT22;2462;51.456;7.248;2023-04-25T10:57:42;21.40;96.40
2935;DHT22;2462;51.456;7.248;2023-04-25T11:00:14;21.40;96.40
2935;DHT22;2462;51.456;7.248;2023-04-25T11:02:46;21.30;96.30
2935;DHT22;2462;51.456;7.248;2023-04-25T11:05:37;21.30;96.00
2935;DHT22;2462;51.456;7.248;2023-04-25T11:08:11;21.20;95.80
2935;DHT22;2462;51.456;7.248;2023-04-25T11:10:36;21.10;96.10
2935;DHT22;2462;51.456;7.248;2023-04-25T11:13:03;21.00;96.10
2935;DHT22;2462;51.456;7.248;2023-04-25T11:15:28;21.00;96.20
2935;DHT22;2462;51.456;7.248;2023-04-25T11:17:55;20.90;94.60
2935;DHT22;2462;51.456;7.248;2023-04-25T11:20:21;20.80;91.60
2935;DHT22;2462;51.456;7.248;2023-04-25T11:22:47;20.70;90.30
2935;DHT22;2462;51.456;7.248;2023-04-25T11:25:15;20.60;91.20
2935;DHT22;2462;51.456;7.248;2023-04-25T11:27:50;20.60;91.20
2935;DHT22;2462;51.456;7.248;2023-04-25T11:30:16;20.60;91.90
2935;DHT22;2462;51.456;7.248;2023-04-25T11:32:42;20.50;92.20
2935;DHT22;2462;51.456;7.248;2023-04-25T11:35:09;20.50;92.40
2935;DHT22;2462;51.456;7.248;2023-04-25T11:37:34;20.50;92.40
2935;DHT22;2462;51.456;7.248;2023-04-25T11:40:00;20.40;91.10
2935;DHT22;2462;51.456;7.248;2023-04-25T11:42:26;20.40;91.50
2935;DHT22;2462;51.456;7.248;2023-04-25T11:44:52;20.50;92.20
2935;DHT22;2462;51.456;7.248;2023-04-25T11:47:17;20.50;92.30
2935;DHT22;2462;51.456;7.248;2023-04-25T11:49:43;20.60;90.70
2935;DHT22;2462;51.456;7.248;2023-04-25T11:52:08;20.50;90.10
2935;DHT22;2462;51.456;7.248;2023-04-25T11:54:37;20.50;90.90
2935;DHT22;2462;51.456;7.248;2023-04-25T11:57:03;20.60;91.90
2935;DHT22;2462;51.456;7.248;2023-04-25T11:59:29;20.70;92.40
2935;DHT22;2462;51.456;7.248;2023-04-25T12:01:55;20.80;92.60
2935;DHT22;2462;51.456;7.248;2023-04-25T12:04:24;20.90;92.80
2935;DHT22;2462;51.456;7.248;2023-04-25T12:06:54;21.10;92.80
2935;DHT22;2462;51.456;7.248;2023-04-25T12:09:27;21.30;92.80
2935;DHT22;2462;51.456;7.248;2023-04-25T12:11:57;21.40;91.40
2935;DHT22;2462;51.456;7.248;2023-04-25T12:14:28;21.30;89.70
2935;DHT22;2462;51.456;7.248;2023-04-25T12:16:56;21.30;89.50
2935;DHT22;2462;51.456;7.248;2023-04-25T12:19:23;21.30;89.40
2935;DHT22;2462;51.456;7.248;2023-04-25T12:21:50;21.20;88.30
2935;DHT22;2462;51.456;7.248;2023-04-25T12:24:17;21.20;89.10
2935;DHT22;2462;51.456;7.248;2023-04-25T12:27:04;21.20;88.70
2935;DHT22;2462;51.456;7.248;2023-04-25T12:29:31;21.10;88.00
2935;DHT22;2462;51.456;7.248;2023-04-25T12:31:58;21.20;88.90
2935;DHT22;2462;51.456;7.248;2023-04-25T12:34:24;21.40;90.10
2935;DHT22;2462;51.456;7.248;2023-04-25T12:36:50;21.50;90.40
2935;DHT22;2462;51.456;7.248;2023-04-25T12:39:18;21.70;90.30
2935;DHT22;2462;51.456;7.248;2023-04-25T12:41:53;21.80;87.80
2935;DHT22;2462;51.456;7.248;2023-04-25T12:44:21;22.00;88.90
2935;DHT22;2462;51.456;7.248;2023-04-25T12:46:48;22.10;89.30
2935;DHT22;2462;51.456;7.248;2023-04-25T12:49:13;22.20;90.00
2935;DHT22;2462;51.456;7.248;2023-04-25T12:51:39;22.30;90.00
2935;DHT22;2462;51.456;7.248;2023-04-25T12:54:07;22.30;90.10
2935;DHT22;2462;51.456;7.248;2023-04-25T12:56:33;22.40;90.20
2935;DHT22;2462;51.456;7.248;2023-04-25T12:58:59;22.40;90.10
2935;DHT22;2462;51.456;7.248;2023-04-25T13:01:25;22.40;90.10
2935;DHT22;2462;51.456;7.248;2023-04-25T13:03:52;22.40;90.20
2935;DHT22;2462;51.456;7.248;2023-04-25T13:06:18;22.40;90.10
2935;DHT22;2462;51.456;7.248;2023-04-25T13:08:44;22.30;90.10
2935;DHT22;2462;51.456;7.248;2023-04-25T13:11:10;22.30;90.10
2935;DHT22;2462;51.456;7.248;2023-04-25T13:13:36;22.20;90.10
2935;DHT22;2462;51.456;7.248;2023-04-25T13:16:03;22.10;90.00
2935;DHT22;2462;51.456;7.248;2023-04-25T13:18:30;22.00;90.00
2935;DHT22;2462;51.456;7.248;2023-04-25T13:20:56;21.90;90.00
2935;DHT22;2462;51.456;7.248;2023-04-25T13:23:22;21.90;90.30
2935;DHT22;2462;51.456;7.248;2023-04-25T13:25:48;21.80;90.20
2935;DHT22;2462;51.456;7.248;2023-04-25T13:28:14;21.70;90.10
2935;DHT22;2462;51.456;7.248;2023-04-25T13:30:40;21.70;90.20
2935;DHT22;2462;51.456;7.248;2023-04-25T13:33:06;21.70;90.30
2935;DHT22;2462;51.456;7.248;2023-04-25T13:35:33;21.70;90.60
2935;DHT22;2462;51.456;7.248;2023-04-25T13:37:59;21.70;90.60
2935;DHT22;2462;51.456;7.248;2023-04-25T13:40:25;21.60;90.50
2935;DHT22;2462;51.456;7.248;2023-04-25T13:42:51;21.60;90.50
2935;DHT22;2462;51.456;7.248;2023-04-25T13:45:17;21.50;90.60
2935;DHT22;2462;51.456;7.248;2023-04-25T13:47:43;21.50;90.60
2935;DHT22;2462;51.456;7.248;2023-04-25T13:50:09;21.50;90.70
2935;DHT22;2462;51.456;7.248;2023-04-25T13:52:35;21.50;90.60
2935;DHT22;2462;51.456;7.248;2023-04-25T13:55:00;21.50;90.70
2935;DHT22;2462;51.456;7.248;2023-04-25T13:57:28;21.50;90.90
2935;DHT22;2462;51.456;7.248;2023-04-25T13:59:54;21.50;90.80
2935;DHT22;2462;51.456;7.248;2023-04-25T14:02:19;21.50;90.90
2935;DHT22;2462;51.456;7.248;2023-04-25T14:04:45;21.60;91.00
2935;DHT22;2462;51.456;7.248;2023-04-25T14:07:10;21.60;91.00
2935;DHT22;2462;51.456;7.248;2023-04-25T14:09:36;21.60;91.00
2935;DHT22;2462;51.456;7.248;2023-04-25T14:12:02;21.60;90.90
2935;DHT22;2462;51.456;7.248;2023-04-25T14:14:28;21.50;90.50
2935;DHT22;2462;51.456;7.248;2023-04-25T14:16:53;21.50;90.00
2935;DHT22;2462;51.456;7.248;2023-04-25T14:19:20;21.50;90.50
2935;DHT22;2462;51.456;7.248;2023-04-25T14:21:45;21.40;90.60
2935;DHT22;2462;51.456;7.248;2023-04-25T14:24:12;21.40;90.70
2935;DHT22;2462;51.456;7.248;2023-04-25T14:26:38;21.40;90.70
2935;DHT22;2462;51.456;7.248;2023-04-25T14:29:07;21.30;90.50
2935;DHT22;2462;51.456;7.248;2023-04-25T14:31:34;21.30;90.40
2935;DHT22;2462;51.456;7.248;2023-04-25T14:33:59;21.20;90.50
2935;DHT22;2462;51.456;7.248;2023-04-25T14:36:25;21.20;90.50
2935;DHT22;2462;51.456;7.248;2023-04-25T14:38:52;21.20;90.50
2935;DHT22;2462;51.456;7.248;2023-04-25T14:41:17;21.10;90.40
2935;DHT22;2462;51.456;7.248;2023-04-25T14:43:43;21.10;90.50
2935;DHT22;2462;51.456;7.248;2023-04-25T14:46:10;21.10;90.60
2935;DHT22;2462;51.456;7.248;2023-04-25T14:48:36;21.20;90.70
2935;DHT22;2462;51.456;7.248;2023-04-25T14:51:02;21.20;90.70
2935;DHT22;2462;51.456;7.248;2023-04-25T14:53:27;21.20;90.70
2935;DHT22;2462;51.456;7.248;2023-04-25T14:55:53;21.20;90.70
2935;DHT22;2462;51.456;7.248;2023-04-25T14:58:19;21.10;90.50
2935;DHT22;2462;51.456;7.248;2023-04-25T15:00:45;21.10;90.50
2935;DHT22;2462;51.456;7.248;2023-04-25T15:03:11;21.10;90.60
2935;DHT22;2462;51.456;7.248;2023-04-25T15:05:38;21.10;90.60
2935;DHT22;2462;51.456;7.248;2023-04-25T15:08:04;21.10;90.60
2935;DHT22;2462;51.456;7.248;2023-04-25T15:10:30;21.10;90.50
2935;DHT22;2462;51.456;7.248;2023-04-25T15:12:55;21.10;90.60
2935;DHT22;2462;51.456;7.248;2023-04-25T15:15:21;21.00;90.50
2935;DHT22;2462;51.456;7.248;2023-04-25T15:17:48;21.00;90.50
2935;DHT22;2462;51.456;7.248;2023-04-25T15:20:14;21.00;90.40
2935;DHT22;2462;51.456;7.248;2023-04-25T15:22:41;21.10;90.60
2935;DHT22;2462;51.456;7.248;2023-04-25T15:25:08;21.10;90.70
2935;DHT22;2462;51.456;7.248;2023-04-25T15:27:34;21.10;90.60
2935;DHT22;2462;51.456;7.248;2023-04-25T15:30:06;21.10;90.60
2935;DHT22;2462;51.456;7.248;2023-04-25T15:32:33;21.20;90.60
2935;DHT22;2462;51.456;7.248;2023-04-25T15:35:03;21.20;90.70
2935;DHT22;2462;51.456;7.248;2023-04-25T15:37:29;21.30;90.70
2935;DHT22;2462;51.456;7.248;2023-04-25T15:40:07;21.30;90.60
2935;DHT22;2462;51.456;7.248;2023-04-25T15:42:43;21.30;90.50
2935;DHT22;2462;51.456;7.248;2023-04-25T15:45:13;21.30;90.70
2935;DHT22;2462;51.456;7.248;2023-04-25T15:47:39;21.30;90.50
2935;DHT22;2462;51.456;7.248;2023-04-25T15:50:07;21.30;90.50
2935;DHT22;2462;51.456;7.248;2023-04-25T15:52:35;21.20;90.50
2935;DHT22;2462;51.456;7.248;2023-04-25T15:55:01;21.20;90.30
2935;DHT22;2462;51.456;7.248;2023-04-25T15:57:27;21.20;90.60
2935;DHT22;2462;51.456;7.248;2023-04-25T15:59:52;21.10;90.60
2935;DHT22;2462;51.456;7.248;2023-04-25T16:02:18;21.10;90.70
2935;DHT22;2462;51.456;7.248;2023-04-25T16:04:44;21.00;90.70
2935;DHT22;2462;51.456;7.248;2023-04-25T16:07:11;20.90;90.70
2935;DHT22;2462;51.456;7.248;2023-04-25T16:09:37;20.90;90.70
2935;DHT22;2462;51.456;7.248;2023-04-25T16:12:03;20.80;90.80
2935;DHT22;2462;51.456;7.248;2023-04-25T16:14:29;20.80;90.80
2935;DHT22;2462;51.456;7.248;2023-04-25T16:16:55;20.80;90.90